Time;durP1;ratioP1;P1;durP2;ratioP2;P2;SDS_P1;SDS_P2;PMS_P1;PMS_P2;Temp;Humidity;BMP_temperature;BMP_pressure;BME280_temperature;BME280_humidity;BME280_pressure;Samples;Min_cycle;Max_cycle;Signal;HPM_P1;HPM_P2
2022/01/20 00:03:33;;;;;;;6.95;1.70;;;;;;;3.39;100.00;102047.75;6291153;22;20023;-80
2022/01/20 00:28:02;;;;;;;13.48;1.92;;;;;;;3.01;100.00;102036.22;6275622;22;20359;-80
2022/01/20 00:38:23;;;;;;;17.15;3.33;;;;;;;3.03;100.00;102031.97;6269181;22;20132;-80
2022/01/20 00:40:54;;;;;;;11.80;2.67;;;;;;;3.04;100.00;102023.34;6271275;22;20018;-82
2022/01/20 00:43:22;;;;;;;13.82;2.47;;;;;;;3.04;100.00;102023.34;6270799;22;20257;-81
2022/01/20 00:45:51;;;;;;;17.42;3.58;;;;;;;3.07;100.00;102038.25;6250920;22;20030;-81
2022/01/20 00:48:21;;;;;;;11.15;2.20;;;;;;;3.09;100.00;102034.91;6270657;22;20041;-82
2022/01/20 00:50:50;;;;;;;15.73;2.80;;;;;;;3.10;100.00;102035.78;6243474;22;20369;-82
2022/01/20 00:53:19;;;;;;;21.50;3.55;;;;;;;3.12;100.00;102045.50;6280460;22;20023;-84
2022/01/20 00:55:47;;;;;;;13.20;2.75;;;;;;;3.13;100.00;102042.06;6284825;22;20026;-82
2022/01/20 00:58:16;;;;;;;14.95;2.85;;;;;;;3.16;100.00;102049.16;6269637;22;20357;-84
2022/01/20 01:00:44;;;;;;;11.13;2.15;;;;;;;3.16;100.00;102050.84;6281023;22;20020;-82
2022/01/20 01:03:13;;;;;;;13.90;2.53;;;;;;;3.16;100.00;102056.03;6251742;22;20027;-83
2022/01/20 01:05:59;;;;;;;10.85;1.77;;;;;;;3.13;100.00;102081.13;6265064;22;20031;-82
2022/01/20 01:08:28;;;;;;;11.25;1.73;;;;;;;3.11;100.00;102064.50;6264222;22;20035;-82
2022/01/20 01:10:57;;;;;;;5.65;2.05;;;;;;;3.10;100.00;102060.13;6305716;22;20022;-82
2022/01/20 01:13:28;;;;;;;13.50;2.05;;;;;;;3.10;100.00;102064.44;6224562;22;20137;-83
2022/01/20 01:15:57;;;;;;;5.10;1.63;;;;;;;3.07;100.00;102059.09;6275534;22;20042;-80
2022/01/20 01:21:43;;;;;;;7.03;1.90;;;;;;;2.98;100.00;102056.88;6269163;22;20030;-82
2022/01/20 01:24:06;;;;;;;9.48;1.85;;;;;;;2.95;100.00;102061.94;6265689;22;20020;-83
2022/01/20 01:26:35;;;;;;;11.93;2.33;;;;;;;2.91;100.00;102053.06;6241783;22;20030;-82
2022/01/20 01:29:18;;;;;;;10.02;2.53;;;;;;;2.86;100.00;102051.91;6267009;22;20023;-82
2022/01/20 01:31:47;;;;;;;8.27;1.60;;;;;;;2.82;100.00;102052.56;6274998;22;20341;-83
2022/01/20 01:34:17;;;;;;;10.82;1.70;;;;;;;2.78;100.00;102042.81;6275355;22;20031;-82
2022/01/20 01:37:02;;;;;;;14.85;2.45;;;;;;;2.74;100.00;102051.22;6268875;22;20024;-82
2022/01/20 01:39:31;;;;;;;13.77;1.70;;;;;;;2.73;100.00;102054.66;6295788;22;20019;-83
2022/01/20 01:42:00;;;;;;;14.18;2.40;;;;;;;2.73;100.00;102052.94;6244447;22;20016;-83
2022/01/20 01:44:30;;;;;;;17.85;2.83;;;;;;;2.77;100.00;102068.75;6232485;22;20233;-82
2022/01/20 01:47:02;;;;;;;9.45;1.63;;;;;;;2.82;100.00;102069.91;6259163;22;20016;-83
2022/01/20 01:49:31;;;;;;;9.80;1.98;;;;;;;2.86;100.00;102084.88;6276063;22;20046;-81
2022/01/20 01:52:00;;;;;;;14.52;3.15;;;;;;;2.91;100.00;102094.72;6240852;22;20016;-82
2022/01/20 01:54:32;;;;;;;13.90;2.47;;;;;;;2.98;100.00;102085.50;6269909;22;20020;-82
2022/01/20 01:57:06;;;;;;;12.60;2.33;;;;;;;3.01;100.00;102090.91;6243481;22;20249;-82
2022/01/20 01:59:37;;;;;;;11.55;1.80;;;;;;;3.01;100.00;102090.00;6268859;22;20477;-82
2022/01/20 02:02:20;;;;;;;9.70;1.60;;;;;;;2.98;100.00;102088.13;6264484;22;20016;-82
2022/01/20 02:04:50;;;;;;;10.45;1.92;;;;;;;2.93;100.00;102084.41;6284466;22;20026;-81
2022/01/20 02:18:54;;;;;;;14.40;2.53;;;;;;;2.79;100.00;102104.44;6275473;22;20460;-82
2022/01/20 02:21:48;;;;;;;19.73;3.33;;;;;;;2.74;100.00;102100.69;6304104;22;20038;-78
2022/01/20 02:24:21;;;;;;;19.20;3.58;;;;;;;2.69;100.00;102102.16;6265042;22;20032;-79
2022/01/20 02:26:50;;;;;;;9.70;2.47;;;;;;;2.64;100.00;102107.09;6271217;22;20019;-79
2022/01/20 02:29:32;;;;;;;16.83;3.55;;;;;;;2.61;100.00;102119.03;6307941;22;20133;-81
2022/01/20 02:32:01;;;;;;;21.60;4.32;;;;;;;2.61;100.00;102134.66;6230817;22;20030;-79
2022/01/20 02:34:31;;;;;;;20.00;3.45;;;;;;;2.59;100.00;102163.22;6307013;22;20633;-80
2022/01/20 02:37:05;;;;;;;18.92;3.35;;;;;;;2.57;100.00;102148.31;6246563;22;20026;-79
2022/01/20 02:45:03;;;;;;;13.57;3.22;;;;;;;2.53;100.00;102116.94;6299967;22;20452;-79
2022/01/20 02:47:33;;;;;;;16.40;3.70;;;;;;;2.51;100.00;102105.53;6272382;22;20019;-79
2022/01/20 02:50:02;;;;;;;14.75;3.08;;;;;;;2.51;100.00;102120.22;6307883;22;20015;-78
2022/01/20 02:52:36;;;;;;;17.95;3.60;;;;;;;2.50;100.00;102129.75;6295286;22;20014;-80
2022/01/20 02:55:04;;;;;;;19.25;4.20;;;;;;;2.51;100.00;102133.25;6279881;22;20015;-79
2022/01/20 02:57:33;;;;;;;34.53;4.45;;;;;;;2.56;100.00;102147.41;6248164;22;20019;-80
2022/01/20 03:00:05;;;;;;;31.13;5.85;;;;;;;2.62;100.00;102162.47;6257761;22;20019;-80
2022/01/20 03:02:34;;;;;;;23.17;4.35;;;;;;;2.66;100.00;102157.53;6300512;22;20012;-79
2022/01/20 03:05:07;;;;;;;30.38;5.00;;;;;;;2.71;100.00;102160.41;6263828;22;20026;-79
2022/01/20 03:07:37;;;;;;;23.00;4.78;;;;;;;2.76;100.00;102174.59;6342443;22;20019;-79
2022/01/20 03:10:07;;;;;;;25.23;4.32;;;;;;;2.76;100.00;102155.44;6272833;22;20471;-79
2022/01/20 03:12:36;;;;;;;19.63;3.50;;;;;;;2.73;100.00;102146.66;6273513;22;20468;-79
2022/01/20 03:15:05;;;;;;;17.90;3.65;;;;;;;2.70;100.00;102148.19;6278394;22;20467;-79
2022/01/20 03:17:33;;;;;;;21.70;3.97;;;;;;;2.71;100.00;102152.59;6280349;22;20026;-78
2022/01/20 03:20:06;;;;;;;18.88;4.35;;;;;;;2.71;100.00;102150.88;6293381;22;20534;-80
2022/01/20 03:22:34;;;;;;;16.05;4.00;;;;;;;2.73;100.00;102149.25;6287471;22;20023;-79
2022/01/20 03:25:03;;;;;;;12.55;3.70;;;;;;;2.79;100.00;102158.22;6287384;22;20022;-80
2022/01/20 03:27:32;;;;;;;17.85;3.75;;;;;;;2.82;100.00;102166.22;6337095;22;20015;-79
2022/01/20 03:30:00;;;;;;;23.25;3.72;;;;;;;2.84;100.00;102169.81;6287942;22;20019;-79
2022/01/20 03:32:32;;;;;;;16.50;3.58;;;;;;;2.87;100.00;102160.47;6285970;22;20124;-79
2022/01/20 03:35:01;;;;;;;14.88;2.88;;;;;;;2.90;100.00;102184.03;6269368;22;20018;-79
2022/01/20 03:37:30;;;;;;;15.10;3.72;;;;;;;2.91;100.00;102156.28;6311339;22;20520;-79
2022/01/20 03:40:06;;;;;;;17.48;3.13;;;;;;;2.91;100.00;102166.72;6289545;22;20030;-79
2022/01/20 03:42:36;;;;;;;21.85;3.92;;;;;;;2.88;100.00;102171.75;6277129;22;20022;-78
2022/01/20 03:45:06;;;;;;;11.32;2.90;;;;;;;2.90;100.00;102176.22;6286938;22;20045;-81
2022/01/20 03:47:37;;;;;;;17.67;2.95;;;;;;;2.88;100.00;102183.06;6306167;22;20034;-81
2022/01/20 03:50:10;;;;;;;16.90;3.83;;;;;;;2.87;100.00;102185.56;6304024;22;20026;-79
2022/01/20 03:52:38;;;;;;;10.90;2.88;;;;;;;2.87;100.00;102196.00;6278005;22;20014;-79
2022/01/20 03:55:07;;;;;;;13.00;2.83;;;;;;;2.86;100.00;102184.69;6310386;22;20019;-81
2022/01/20 03:57:56;;;;;;;16.02;2.90;;;;;;;2.86;100.00;102184.69;6298313;22;20018;-79
2022/01/20 04:00:32;;;;;;;22.35;3.22;;;;;;;2.85;100.00;102185.47;6283117;22;20019;-79
2022/01/20 04:03:20;;;;;;;15.05;3.13;;;;;;;2.88;100.00;102196.09;6296374;22;20651;-80
2022/01/20 04:06:03;;;;;;;14.38;4.47;;;;;;;2.86;100.00;102197.72;6290550;22;20321;-79
2022/01/20 04:08:42;;;;;;;14.82;3.15;;;;;;;2.85;100.00;102213.25;6314762;22;20050;-80
2022/01/20 04:11:24;;;;;;;16.30;3.33;;;;;;;2.82;100.00;102202.66;6298842;22;20238;-80
2022/01/20 04:13:53;;;;;;;15.18;3.08;;;;;;;2.79;100.00;102197.28;6274296;22;20022;-80
2022/01/20 04:16:50;;;;;;;22.55;4.03;;;;;;;2.76;100.00;102202.31;6288709;22;20160;-80
2022/01/20 04:19:20;;;;;;;15.93;3.33;;;;;;;2.72;100.00;102202.16;6310453;22;20015;-79
2022/01/20 04:21:51;;;;;;;18.92;3.67;;;;;;;2.70;100.00;102203.78;6277936;22;20011;-79
2022/01/20 04:24:19;;;;;;;16.75;3.75;;;;;;;2.69;100.00;102211.47;6307155;22;20014;-79
2022/01/20 04:26:48;;;;;;;14.63;3.80;;;;;;;2.69;100.00;102207.16;6253345;22;20019;-79
2022/01/20 04:29:18;;;;;;;17.05;2.35;;;;;;;2.70;100.00;102211.56;6295235;22;20340;-79
2022/01/20 04:31:49;;;;;;;14.52;3.08;;;;;;;2.72;100.00;102233.38;6304513;22;20018;-79
2022/01/20 04:34:21;;;;;;;19.30;3.95;;;;;;;2.69;100.00;102238.41;6284817;22;20022;-79
2022/01/20 04:36:53;;;;;;;29.05;4.78;;;;;;;2.61;100.00;102229.25;6298681;22;20014;-79
2022/01/20 04:39:25;;;;;;;30.00;3.85;;;;;;;2.53;100.00;102240.91;6271843;22;20015;-79
2022/01/20 04:41:55;;;;;;;26.27;4.47;;;;;;;2.45;100.00;102234.38;6279505;22;20019;-79
2022/01/20 04:47:40;;;;;;;10.73;3.22;;;;;;;2.17;100.00;102245.75;6222721;22;20023;-79
2022/01/20 04:58:31;;;;;;;13.52;2.75;;;;;;;2.00;100.00;102262.03;6300043;22;20358;-79
2022/01/20 05:01:02;;;;;;;17.90;3.78;;;;;;;1.99;100.00;102255.06;6278772;22;20029;-80
2022/01/20 05:04:11;;;;;;;22.27;3.63;;;;;;;1.88;100.00;102257.88;6276858;22;20343;-79
2022/01/20 05:07:07;;;;;;;17.20;4.40;;;;;;;1.71;100.00;102242.97;6280749;22;20348;-79
2022/01/20 05:09:38;;;;;;;16.35;3.55;;;;;;;1.61;100.00;102241.50;6299568;22;20014;-80
2022/01/20 05:12:11;;;;;;;21.10;3.88;;;;;;;1.57;100.00;102249.94;6270873;22;20022;-81
2022/01/20 05:14:41;;;;;;;14.43;3.08;;;;;;;1.53;100.00;102242.72;6248867;22;20026;-79
2022/01/20 05:17:10;;;;;;;17.52;4.25;;;;;;;1.51;100.00;102247.84;6283456;22;20022;-81
2022/01/20 05:19:40;;;;;;;16.85;2.80;;;;;;;1.51;100.00;102250.44;6278588;22;20349;-80
2022/01/20 05:22:08;;;;;;;20.35;3.47;;;;;;;1.51;100.00;102255.63;6280092;22;20026;-80
2022/01/20 05:24:46;;;;;;;15.05;3.65;;;;;;;1.57;100.00;102278.50;6278980;22;20014;-79
2022/01/20 05:27:15;;;;;;;15.82;3.42;;;;;;;1.59;100.00;102299.38;6311031;22;20015;-79
2022/01/20 05:29:43;;;;;;;8.68;2.47;;;;;;;1.48;100.00;102294.41;6315224;22;20030;-79
2022/01/20 05:32:15;;;;;;;14.75;2.90;;;;;;;1.39;100.00;102304.19;6251448;22;20018;-80
2022/01/20 05:34:43;;;;;;;9.40;2.47;;;;;;;1.25;100.00;102285.16;6277648;22;20014;-79
2022/01/20 05:37:12;;;;;;;7.63;2.30;;;;;;;1.12;100.00;102278.25;6301694;22;20023;-83
2022/01/20 05:39:44;;;;;;;16.73;2.53;;;;;;;1.05;100.00;102283.84;6344501;22;20029;-81
2022/01/20 05:42:18;;;;;;;3.95;1.40;;;;;;;1.03;100.00;102290.66;6267202;22;20558;-80
2022/01/20 05:45:07;;;;;;;11.02;2.00;;;;;;;1.02;100.00;102293.13;6323112;22;20025;-81
2022/01/20 05:47:44;;;;;;;11.98;2.65;;;;;;;1.05;100.00;102291.66;6350025;22;20025;-81
2022/01/20 05:50:22;;;;;;;12.40;4.07;;;;;;;1.09;100.00;102295.34;6282536;22;20069;-82
2022/01/20 05:52:51;;;;;;;11.60;2.72;;;;;;;1.11;100.00;102305.00;6303518;22;20025;-82
2022/01/20 05:55:22;;;;;;;18.85;3.47;;;;;;;1.17;100.00;102302.84;6328926;22;20436;-82
2022/01/20 05:57:50;;;;;;;20.77;3.92;;;;;;;1.25;100.00;102295.53;6292070;22;20019;-82
2022/01/20 06:00:22;;;;;;;19.45;4.18;;;;;;;1.32;100.00;102273.44;6283164;22;20027;-81
2022/01/20 06:05:44;;;;;;;21.73;5.00;;;;;;;1.46;100.00;102285.63;6283429;22;20322;-82
2022/01/20 06:08:17;;;;;;;26.45;4.70;;;;;;;1.51;100.00;102293.69;6310637;22;20230;-83
2022/01/20 06:10:46;;;;;;;18.70;3.95;;;;;;;1.52;100.00;102298.97;6307492;22;20025;-81
2022/01/20 06:13:31;;;;;;;14.13;3.30;;;;;;;1.53;100.00;102306.00;6275965;22;20041;-81
2022/01/20 06:16:01;;;;;;;16.45;3.22;;;;;;;1.55;100.00;102303.47;6285926;22;20015;-81
2022/01/20 06:18:33;;;;;;;26.35;4.07;;;;;;;1.55;100.00;102314.78;6277865;22;20019;-81
2022/01/20 06:21:02;;;;;;;18.38;3.95;;;;;;;1.59;100.00;102325.34;6286706;22;20011;-81
2022/01/20 06:23:31;;;;;;;18.42;3.20;;;;;;;1.62;100.00;102321.25;6301874;22;20396;-81
2022/01/20 06:26:05;;;;;;;16.00;3.83;;;;;;;1.66;100.00;102317.13;6288763;22;20007;-81
2022/01/20 06:28:37;;;;;;;18.67;3.50;;;;;;;1.68;100.00;102320.72;6266715;22;20023;-82
2022/01/20 06:31:09;;;;;;;16.88;3.60;;;;;;;1.70;100.00;102329.53;6310421;22;20460;-82
2022/01/20 06:33:39;;;;;;;17.65;3.00;;;;;;;1.71;100.00;102331.34;6269171;22;20019;-82
2022/01/20 06:36:10;;;;;;;17.35;3.35;;;;;;;1.73;100.00;102332.31;6283907;22;20018;-81
2022/01/20 06:38:38;;;;;;;13.00;3.03;;;;;;;1.76;100.00;102332.53;6304478;22;20023;-82
2022/01/20 06:41:08;;;;;;;13.00;2.80;;;;;;;1.78;100.00;102330.94;6309589;22;20033;-82
2022/01/20 06:43:42;;;;;;;16.67;3.08;;;;;;;1.80;100.00;102326.72;6306055;22;20061;-82
2022/01/20 06:46:12;;;;;;;11.02;2.75;;;;;;;1.82;100.00;102340.72;6308176;22;20469;-81
2022/01/20 06:49:03;;;;;;;14.20;3.08;;;;;;;1.86;100.00;102354.78;6288435;22;20457;-82
2022/01/20 06:51:33;;;;;;;19.80;3.78;;;;;;;1.87;100.00;102391.28;6288263;22;20028;-82
2022/01/20 06:54:04;;;;;;;17.77;4.00;;;;;;;1.66;100.00;102387.31;6278329;22;20018;-82
2022/01/20 06:56:35;;;;;;;7.70;1.77;;;;;;;1.39;100.00;102378.66;6274845;22;20440;-81
2022/01/20 06:59:14;;;;;;;6.65;1.67;;;;;;;1.12;100.00;102379.53;6270155;22;20023;-82
2022/01/20 07:01:44;;;;;;;7.20;1.73;;;;;;;1.07;100.00;102390.41;6288739;22;20019;-81
2022/01/20 07:04:19;;;;;;;6.07;1.70;;;;;;;1.06;100.00;102388.59;6269650;22;20401;-81
2022/01/20 07:06:48;;;;;;;12.35;2.92;;;;;;;1.07;100.00;102401.69;6278875;22;20404;-81
2022/01/20 07:09:36;;;;;;;15.10;2.75;;;;;;;1.11;100.00;102389.81;6291835;22;20022;-81
2022/01/20 07:12:13;;;;;;;9.57;2.50;;;;;;;1.12;100.00;102395.09;6298325;22;20343;-81
2022/01/20 07:14:42;;;;;;;20.52;4.15;;;;;;;1.14;100.00;102387.44;6254366;22;20341;-82
2022/01/20 07:17:11;;;;;;;12.55;2.78;;;;;;;1.17;100.00;102388.53;6271781;22;20019;-81
2022/01/20 07:19:47;;;;;;;18.02;3.42;;;;;;;1.25;100.00;102403.69;6306284;22;20072;-82
2022/01/20 07:22:17;;;;;;;18.00;3.35;;;;;;;1.31;100.00;102396.31;6296198;22;20135;-81
2022/01/20 07:24:49;;;;;;;16.48;3.65;;;;;;;1.38;100.00;102414.13;6265513;22;20026;-82
2022/01/20 07:27:53;;;;;;;19.48;3.35;;;;;;;1.45;100.00;102423.19;6303109;22;20023;-82
2022/01/20 07:30:35;;;;;;;17.98;3.28;;;;;;;1.51;100.00;102433.97;6269961;22;20033;-81
2022/01/20 07:33:05;;;;;;;26.83;4.38;;;;;;;1.52;100.00;102434.09;6283526;22;20030;-83
2022/01/20 07:35:36;;;;;;;18.00;3.67;;;;;;;1.52;100.00;102436.69;6271510;22;20026;-82
2022/01/20 07:38:08;;;;;;;25.98;4.07;;;;;;;1.51;100.00;102432.31;6283875;22;20015;-81
2022/01/20 07:40:38;;;;;;;24.48;4.50;;;;;;;1.50;100.00;102438.28;6275511;22;20334;-82
2022/01/20 07:43:07;;;;;;;26.50;3.80;;;;;;;1.50;100.00;102443.47;6240138;22;20280;-83
2022/01/20 07:45:47;;;;;;;13.98;3.70;;;;;;;1.51;100.00;102442.69;6285898;22;20023;-83
2022/01/20 07:48:44;;;;;;;17.85;3.25;;;;;;;1.55;100.00;102454.16;6259350;22;20026;-83
2022/01/20 07:51:19;;;;;;;13.20;3.20;;;;;;;1.57;100.00;102460.38;6269768;22;20019;-81
2022/01/20 07:53:49;;;;;;;15.70;2.92;;;;;;;1.62;100.00;102455.47;6307432;22;20034;-82
2022/01/20 07:56:20;;;;;;;16.75;2.97;;;;;;;1.64;100.00;102461.69;6300171;22;20535;-81
2022/01/20 07:58:49;;;;;;;16.58;3.08;;;;;;;1.65;100.00;102458.28;6246057;22;20023;-82
2022/01/20 08:01:22;;;;;;;15.93;4.10;;;;;;;1.68;100.00;102463.66;6266186;22;20434;-81
2022/01/20 08:03:58;;;;;;;15.52;2.95;;;;;;;1.69;100.00;102450.78;6308427;22;20022;-82
2022/01/20 08:06:30;;;;;;;17.90;3.28;;;;;;;1.71;100.00;102450.88;6253965;22;20494;-81
2022/01/20 08:09:31;;;;;;;24.27;3.25;;;;;;;1.72;100.00;102448.38;6282871;22;20026;-81
2022/01/20 08:12:23;;;;;;;25.70;4.97;;;;;;;1.74;100.00;102444.19;6323023;22;20019;-82
2022/01/20 08:15:03;;;;;;;20.67;3.78;;;;;;;1.77;100.00;102439.97;6275778;22;20019;-82
2022/01/20 08:17:57;;;;;;;16.30;3.92;;;;;;;1.78;100.00;102446.97;6288623;22;20024;-81
2022/01/20 08:20:26;;;;;;;13.25;3.22;;;;;;;1.80;100.00;102438.47;6286494;22;20495;-82
2022/01/20 08:23:01;;;;;;;14.75;3.45;;;;;;;1.83;100.00;102440.38;6226778;22;20247;-81
2022/01/20 08:25:32;;;;;;;20.03;3.57;;;;;;;1.87;100.00;102461.47;6261624;22;20022;-82
2022/01/20 08:28:01;;;;;;;15.00;3.42;;;;;;;1.89;100.00;102458.94;6302500;22;20722;-82
2022/01/20 08:30:36;;;;;;;22.50;3.85;;;;;;;1.89;100.00;102456.34;6333305;22;20026;-82
2022/01/20 08:33:07;;;;;;;14.98;3.50;;;;;;;1.91;100.00;102453.06;6300102;22;20143;-82
2022/01/20 08:35:47;;;;;;;14.15;2.97;;;;;;;1.91;100.00;102458.28;6288494;22;20021;-82
2022/01/20 08:38:34;;;;;;;16.98;2.42;;;;;;;1.95;100.00;102459.38;6312319;22;20054;-82
2022/01/20 08:41:03;;;;;;;12.38;2.50;;;;;;;1.97;100.00;102467.25;6276019;22;20014;-83
2022/01/20 08:43:38;;;;;;;12.05;2.50;;;;;;;2.00;100.00;102463.13;6272167;22;20014;-82
2022/01/20 08:46:13;;;;;;;15.18;3.45;;;;;;;2.04;100.00;102461.63;6243370;22;20034;-82
2022/01/20 08:48:43;;;;;;;15.15;3.58;;;;;;;2.08;100.00;102459.34;6274902;22;20022;-83
2022/01/20 08:51:44;;;;;;;14.85;2.90;;;;;;;2.10;100.00;102456.84;6284217;22;20034;-82
2022/01/20 08:54:19;;;;;;;16.85;3.58;;;;;;;2.11;100.00;102469.03;6268600;22;20227;-81
2022/01/20 08:56:56;;;;;;;16.90;2.70;;;;;;;2.11;100.00;102466.44;6288169;22;20025;-81
2022/01/20 08:59:26;;;;;;;18.40;2.88;;;;;;;2.13;100.00;102468.31;6280863;22;20358;-82
2022/01/20 09:01:55;;;;;;;12.93;3.78;;;;;;;2.20;100.00;102485.22;6308148;22;20018;-84
2022/01/20 09:04:23;;;;;;;19.10;3.33;;;;;;;2.26;100.00;102483.00;6262780;22;20031;-82
2022/01/20 09:07:16;;;;;;;12.82;2.45;;;;;;;2.31;100.00;102491.13;6283994;22;20019;-82
2022/01/20 09:09:47;;;;;;;19.08;3.05;;;;;;;2.36;100.00;102491.41;6224141;22;20024;-81
2022/01/20 09:15:27;;;;;;;9.98;2.60;;;;;;;2.38;100.00;102479.38;6234029;22;20701;-82
2022/01/20 09:15:31;;;;;;;11.27;2.53;;;;;;;2.45;100.00;102472.06;6236740;22;20028;-78
2022/01/20 09:18:23;;;;;;;13.15;3.15;;;;;;;2.60;100.00;102487.72;6237266;22;20251;-79
2022/01/20 09:20:55;;;;;;;10.30;2.72;;;;;;;2.67;100.00;102484.69;6204843;22;20023;-78
2022/01/20 09:23:25;;;;;;;20.20;3.33;;;;;;;2.70;100.00;102495.31;6224417;22;20315;-78
2022/01/20 09:25:54;;;;;;;15.40;2.83;;;;;;;2.68;100.00;102493.41;6227700;22;20031;-78
2022/01/20 09:28:25;;;;;;;19.55;2.85;;;;;;;2.58;100.00;102498.84;6215067;22;20020;-78
2022/01/20 09:30:57;;;;;;;17.13;3.08;;;;;;;2.40;100.00;102515.13;6268334;22;20026;-78
2022/01/20 09:33:33;;;;;;;11.35;2.17;;;;;;;2.18;100.00;102518.03;6239550;22;20023;-80
2022/01/20 09:36:08;;;;;;;17.85;3.22;;;;;;;2.08;100.00;102515.63;6208552;22;20510;-78
2022/01/20 09:38:42;;;;;;;14.23;2.28;;;;;;;1.98;100.00;102508.06;6252663;22;20031;-78
2022/01/20 09:41:18;;;;;;;5.32;1.85;;;;;;;1.93;100.00;102508.66;6250144;22;20648;-80
2022/01/20 09:43:50;;;;;;;6.78;1.42;;;;;;;1.92;100.00;102521.56;6279119;22;20026;-79
2022/01/20 09:46:20;;;;;;;5.45;1.70;;;;;;;1.97;100.00;102522.78;6282494;22;20014;-79
2022/01/20 09:48:59;;;;;;;5.13;1.55;;;;;;;2.02;100.00;102534.34;6276570;22;20019;-78
2022/01/20 09:51:42;;;;;;;4.15;1.50;;;;;;;2.07;100.00;102534.66;6293182;22;20656;-78
2022/01/20 09:54:17;;;;;;;5.57;2.17;;;;;;;2.16;100.00;102540.47;6295819;22;20030;-78
2022/01/20 09:57:05;;;;;;;10.80;1.92;;;;;;;2.29;100.00;102539.56;6282163;22;20014;-79
2022/01/20 09:59:35;;;;;;;14.38;3.25;;;;;;;2.46;100.00;102540.63;6291978;22;20026;-79
2022/01/20 10:02:09;;;;;;;7.97;1.85;;;;;;;2.56;100.00;102536.91;6270989;22;20022;-79
2022/01/20 10:04:37;;;;;;;10.38;2.20;;;;;;;2.60;100.00;102534.56;6310616;22;20030;-79
2022/01/20 10:07:20;;;;;;;12.38;2.10;;;;;;;2.60;100.00;102533.69;6273478;22;20185;-79
2022/01/20 10:09:58;;;;;;;16.13;2.88;;;;;;;2.63;100.00;102539.97;6293198;22;20025;-79
2022/01/20 10:13:06;;;;;;;10.90;2.60;;;;;;;2.70;100.00;102534.34;6258577;22;20015;-79
2022/01/20 10:16:08;;;;;;;11.93;2.47;;;;;;;2.82;100.00;102546.34;6301664;22;20022;-77
2022/01/20 10:18:57;;;;;;;16.48;3.45;;;;;;;2.92;100.00;102546.09;6312960;22;20015;-80
2022/01/20 10:21:39;;;;;;;13.30;3.38;;;;;;;3.04;100.00;102549.44;6301256;22;20473;-81
2022/01/20 10:24:28;;;;;;;20.60;4.28;;;;;;;3.15;100.00;102539.66;6256221;22;20204;-79
2022/01/20 10:27:19;;;;;;;19.15;3.05;;;;;;;3.26;100.00;102537.72;6293103;22;20023;-80
2022/01/20 10:30:00;;;;;;;17.70;3.13;;;;;;;3.31;100.00;102551.94;6273198;22;20349;-79
2022/01/20 10:32:40;;;;;;;19.13;4.40;;;;;;;3.31;100.00;102546.72;6297102;22;20548;-79
2022/01/20 10:35:12;;;;;;;18.02;3.20;;;;;;;3.28;100.00;102554.34;6302523;22;20029;-79
2022/01/20 10:38:11;;;;;;;19.55;3.60;;;;;;;3.20;100.00;102547.78;6296470;22;20262;-79
2022/01/20 10:40:56;;;;;;;12.38;3.38;;;;;;;3.17;100.00;102558.91;6292994;22;20224;-78
2022/01/20 10:43:32;;;;;;;12.75;2.65;;;;;;;3.19;100.00;102567.69;6253587;22;20232;-78
2022/01/20 10:46:18;;;;;;;9.60;1.80;;;;;;;3.19;100.00;102577.22;6273220;22;20487;-79
2022/01/20 10:49:00;;;;;;;6.18;1.60;;;;;;;3.22;100.00;102569.63;6253837;22;20507;-79
2022/01/20 10:52:14;;;;;;;13.45;1.48;;;;;;;3.20;100.00;102582.53;6277903;22;20117;-80
2022/01/20 10:54:54;;;;;;;2.53;1.30;;;;;;;3.13;100.00;102578.66;6292346;22;20022;-78
2022/01/20 10:57:40;;;;;;;7.63;1.33;;;;;;;3.08;100.00;102572.28;6273404;22;20023;-79
2022/01/20 11:00:11;;;;;;;6.70;1.85;;;;;;;3.02;100.00;102576.19;6254794;22;20019;-80
2022/01/20 11:02:57;;;;;;;7.28;2.00;;;;;;;2.96;100.00;102568.00;6288520;22;20125;-79
2022/01/20 11:05:29;;;;;;;8.57;2.08;;;;;;;2.98;100.00;102571.59;6273132;22;20495;-80
2022/01/20 11:08:00;;;;;;;8.48;2.47;;;;;;;3.04;100.00;102578.06;6271254;22;20015;-79
2022/01/20 11:10:29;;;;;;;10.48;2.92;;;;;;;3.09;100.00;102558.44;6267566;22;20022;-79
2022/01/20 11:13:25;;;;;;;13.25;2.50;;;;;;;3.16;100.00;102569.22;6273048;22;20022;-80
2022/01/20 11:15:56;;;;;;;14.82;2.58;;;;;;;3.22;100.00;102565.28;6245603;22;20019;-78
2022/01/20 11:18:29;;;;;;;9.25;2.42;;;;;;;3.29;100.00;102559.66;6283093;22;20034;-79
2022/01/20 11:21:08;;;;;;;12.38;2.70;;;;;;;3.35;100.00;102558.22;6298538;22;20239;-79
2022/01/20 11:23:42;;;;;;;14.38;2.92;;;;;;;3.44;100.00;102557.06;6242223;22;20034;-80
2022/01/20 11:26:29;;;;;;;13.38;3.33;;;;;;;3.58;100.00;102572.63;6283779;22;20023;-80
2022/01/20 11:29:25;;;;;;;15.73;3.22;;;;;;;3.55;100.00;102575.03;6255648;22;20032;-79
2022/01/20 11:32:38;;;;;;;15.98;2.53;;;;;;;3.35;100.00;102581.69;6272397;22;20027;-79
2022/01/20 11:35:18;;;;;;;6.20;1.67;;;;;;;3.25;100.00;102575.00;6254541;22;20357;-80
2022/01/20 11:37:57;;;;;;;4.85;1.52;;;;;;;3.13;100.00;102578.66;6294613;22;20026;-79
2022/01/20 11:40:26;;;;;;;4.53;1.40;;;;;;;3.12;100.00;102568.16;6309197;22;20015;-79
2022/01/20 11:42:58;;;;;;;5.85;1.75;;;;;;;3.15;100.00;102567.44;6284609;22;20200;-79
2022/01/20 11:45:35;;;;;;;11.60;2.53;;;;;;;3.22;100.00;102553.97;6331358;22;20016;-79
2022/01/20 11:48:24;;;;;;;8.82;2.35;;;;;;;3.29;100.00;102551.84;6262376;22;20534;-79
2022/01/20 11:51:05;;;;;;;13.52;2.25;;;;;;;3.40;100.00;102535.94;6299408;22;20164;-79
2022/01/20 11:53:41;;;;;;;15.75;2.90;;;;;;;3.50;100.00;102526.16;6312495;22;20035;-79
2022/01/20 11:56:10;;;;;;;17.38;2.95;;;;;;;3.61;100.00;102531.06;6307183;22;20015;-78
2022/01/20 11:58:50;;;;;;;13.10;2.90;;;;;;;3.66;100.00;102527.94;6204491;22;20023;-80
2022/01/20 12:01:21;;;;;;;15.18;3.67;;;;;;;3.69;100.00;102537.66;6300302;22;20023;-79
2022/01/20 12:03:52;;;;;;;13.05;2.90;;;;;;;3.70;100.00;102542.97;6296453;22;20191;-81
2022/01/20 12:06:38;;;;;;;15.07;3.47;;;;;;;3.68;100.00;102541.94;6277095;22;20023;-79
2022/01/20 12:09:15;;;;;;;11.43;3.05;;;;;;;3.62;100.00;102558.97;6265756;22;20023;-79
2022/01/20 12:11:46;;;;;;;13.30;2.92;;;;;;;3.59;100.00;102569.19;6319823;22;20464;-80
2022/01/20 12:14:32;;;;;;;10.10;2.45;;;;;;;3.59;100.00;102563.97;6229935;22;20027;-79
2022/01/20 12:17:04;;;;;;;9.80;2.47;;;;;;;3.65;100.00;102574.78;6297481;22;20019;-78
2022/01/20 12:19:34;;;;;;;16.13;3.33;;;;;;;3.69;100.00;102563.72;6278175;22;20357;-78
2022/01/20 12:22:09;;;;;;;9.95;2.45;;;;;;;3.71;100.00;102573.44;6237629;22;20223;-79
2022/01/20 12:24:50;;;;;;;14.48;2.97;;;;;;;3.69;100.00;102574.16;6213405;22;20015;-79
2022/01/20 12:27:21;;;;;;;17.85;3.75;;;;;;;3.64;100.00;102586.00;6298357;22;20023;-78
2022/01/20 12:29:51;;;;;;;20.58;3.55;;;;;;;3.58;100.00;102581.34;6222901;22;20585;-80
2022/01/20 12:32:21;;;;;;;10.20;2.50;;;;;;;3.56;100.00;102561.22;6300004;22;20026;-79
2022/01/20 12:35:00;;;;;;;9.55;3.13;;;;;;;3.55;100.00;102567.22;6294137;22;20027;-79
2022/01/20 12:37:38;;;;;;;15.77;3.20;;;;;;;3.56;100.00;102577.75;6319247;22;20349;-81
2022/01/20 12:40:21;;;;;;;19.02;3.40;;;;;;;3.59;100.00;102563.97;6264676;22;20034;-79
2022/01/20 12:42:50;;;;;;;16.77;3.25;;;;;;;3.62;100.00;102567.66;6269601;22;20244;-79
2022/01/20 12:48:17;;;;;;;16.70;3.40;;;;;;;3.73;100.00;102570.91;6299717;22;20015;-81
2022/01/20 12:51:02;;;;;;;19.77;3.70;;;;;;;3.69;100.00;102574.16;6266650;22;20019;-78
2022/01/20 12:53:44;;;;;;;15.70;3.83;;;;;;;3.67;100.00;102565.34;6287705;22;20023;-79
2022/01/20 12:56:13;;;;;;;18.13;3.17;;;;;;;3.66;100.00;102568.75;6298901;22;20023;-79
2022/01/20 12:58:52;;;;;;;10.65;2.67;;;;;;;3.58;100.00;102563.09;6268121;22;20746;-80
2022/01/20 13:01:21;;;;;;;13.60;2.75;;;;;;;3.54;100.00;102561.13;6259254;22;20376;-79
2022/01/20 13:03:51;;;;;;;12.95;3.17;;;;;;;3.48;100.00;102550.34;6263501;22;20460;-79
2022/01/20 13:06:26;;;;;;;16.08;3.97;;;;;;;3.45;100.00;102557.97;6290856;22;20046;-80